createdAt,value
2022-07-29T00:01:54.799Z,90.93
2022-07-29T00:04:23.575Z,87.97
2022-07-29T00:06:52.368Z,89.86
2022-07-29T00:09:21.126Z,87.73
2022-07-29T00:11:49.975Z,86.21
2022-07-29T00:14:20.087Z,87.30
2022-07-29T00:16:48.874Z,91.54
2022-07-29T00:19:17.690Z,92.40
2022-07-29T00:21:46.461Z,94.07
2022-07-29T00:24:15.849Z,91.27
2022-07-29T00:26:44.851Z,89.18
2022-07-29T00:32:03.988Z,90.71
2022-07-29T00:34:50.719Z,93.29
2022-07-29T00:37:19.495Z,93.04
2022-07-29T00:39:48.292Z,91.08
2022-07-29T00:42:17.280Z,89.82
2022-07-29T00:44:46.133Z,89.40
2022-07-29T00:47:16.377Z,88.98
2022-07-29T00:49:45.282Z,87.84
2022-07-29T00:52:17.030Z,86.94
2022-07-29T00:54:46.177Z,87.74
2022-07-29T00:57:15.125Z,89.36
2022-07-29T00:59:43.878Z,89.48
2022-07-29T01:02:12.889Z,92.73
2022-07-29T01:04:43.397Z,91.06
2022-07-29T01:07:12.381Z,89.86
2022-07-29T01:09:45.524Z,93.67
2022-07-29T01:12:17.795Z,93.28
2022-07-29T01:14:47.058Z,91.51
2022-07-29T01:17:20.416Z,93.67
2022-07-29T01:19:55.628Z,94.14
2022-07-29T01:22:31.221Z,92.40
2022-07-29T01:25:20.664Z,91.68
2022-07-29T01:28:18.629Z,93.72
2022-07-29T01:30:52.074Z,92.64
2022-07-29T01:33:36.868Z,94.75
2022-07-29T01:36:10.370Z,95.64
2022-07-29T01:38:40.489Z,95.11
2022-07-29T01:41:11.857Z,94.12
2022-07-29T01:43:45.038Z,95.42
2022-07-29T01:46:17.112Z,95.44
2022-07-29T01:48:49.554Z,93.63
2022-07-29T01:51:21.916Z,94.14
2022-07-29T01:53:57.426Z,92.70
2022-07-29T01:56:26.469Z,92.21
2022-07-29T01:58:56.551Z,92.93
2022-07-29T02:01:29.308Z,94.31
2022-07-29T02:03:59.131Z,93.62
2022-07-29T02:06:28.371Z,93.67
2022-07-29T02:08:58.587Z,92.81
2022-07-29T02:11:27.693Z,93.66
2022-07-29T02:13:58.854Z,92.13
2022-07-29T02:16:31.175Z,91.62
2022-07-29T02:19:01.579Z,90.84
2022-07-29T02:21:32.195Z,91.46
2022-07-29T02:24:03.192Z,92.79
2022-07-29T02:26:33.297Z,92.80
2022-07-29T02:29:02.371Z,92.86
2022-07-29T02:31:35.902Z,94.76
2022-07-29T02:34:05.726Z,94.90
2022-07-29T02:36:35.246Z,94.87
2022-07-29T02:39:05.286Z,93.43
2022-07-29T02:41:39.854Z,94.22
2022-07-29T02:44:14.227Z,93.32
2022-07-29T02:46:49.074Z,94.68
2022-07-29T02:49:21.181Z,93.57
2022-07-29T02:51:54.702Z,94.65
2022-07-29T02:54:29.625Z,93.92
2022-07-29T02:57:00.101Z,93.83
2022-07-29T02:59:29.893Z,95.21
2022-07-29T03:02:01.160Z,95.39
2022-07-29T03:04:31.293Z,94.91
2022-07-29T03:07:01.711Z,93.03
2022-07-29T03:09:31.579Z,91.21
2022-07-29T03:12:02.757Z,91.64
2022-07-29T03:14:32.548Z,93.77
2022-07-29T03:17:02.678Z,93.93
2022-07-29T03:19:31.421Z,92.13
2022-07-29T03:22:00.850Z,92.79
2022-07-29T03:24:31.677Z,93.82
2022-07-29T03:27:00.946Z,92.95
2022-07-29T03:29:33.945Z,92.43
2022-07-29T03:32:08.006Z,92.42
2022-07-29T03:34:38.851Z,91.81
2022-07-29T03:37:08.435Z,91.06
2022-07-29T03:39:41.526Z,91.08
2022-07-29T03:42:13.555Z,92.80
2022-07-29T03:44:44.221Z,92.95
2022-07-29T03:47:15.095Z,94.20
2022-07-29T03:49:44.549Z,94.24
2022-07-29T03:52:13.316Z,94.55
2022-07-29T03:54:42.125Z,93.93
2022-07-29T03:57:12.873Z,92.97
2022-07-29T03:59:42.136Z,92.02
2022-07-29T04:02:14.634Z,93.50
2022-07-29T04:04:45.856Z,93.00
2022-07-29T04:07:14.874Z,94.16
2022-07-29T04:09:44.235Z,94.24
2022-07-29T04:12:13.017Z,95.21
2022-07-29T04:14:42.895Z,93.01
2022-07-29T04:17:14.033Z,91.48
2022-07-29T04:19:42.748Z,91.76
2022-07-29T04:22:12.792Z,91.93
2022-07-29T04:24:44.306Z,92.01
2022-07-29T04:27:13.337Z,92.20
2022-07-29T04:29:56.780Z,93.67
2022-07-29T04:32:26.739Z,93.57
2022-07-29T04:34:55.786Z,94.10
2022-07-29T04:37:26.480Z,92.18
2022-07-29T04:39:55.256Z,93.43
2022-07-29T04:42:27.830Z,89.05
2022-07-29T04:44:58.218Z,88.51
2022-07-29T04:47:30.083Z,89.41
2022-07-29T04:49:59.612Z,91.37
2022-07-29T04:52:29.776Z,91.80
2022-07-29T04:54:58.492Z,91.17
2022-07-29T04:57:27.280Z,91.95
2022-07-29T04:59:55.998Z,93.03
2022-07-29T05:02:24.904Z,93.93
2022-07-29T05:04:53.689Z,93.43
2022-07-29T05:07:22.588Z,91.87
2022-07-29T05:09:53.991Z,91.64
2022-07-29T05:12:22.717Z,91.71
2022-07-29T05:14:51.493Z,91.79
2022-07-29T05:17:20.346Z,90.99
2022-07-29T05:19:49.119Z,88.98
2022-07-29T05:22:18.438Z,88.52
2022-07-29T05:24:47.278Z,89.26
2022-07-29T05:27:17.410Z,89.81
2022-07-29T05:29:48.832Z,89.43
2022-07-29T05:32:17.828Z,88.96
2022-07-29T05:34:51.330Z,88.20
2022-07-29T05:37:21.183Z,87.62
2022-07-29T05:39:56.135Z,85.56
2022-07-29T05:42:27.593Z,86.12
2022-07-29T05:44:56.360Z,86.36
2022-07-29T05:47:25.797Z,86.74
2022-07-29T05:49:54.980Z,86.62
2022-07-29T05:52:23.958Z,84.18
2022-07-29T05:54:52.894Z,83.53
2022-07-29T05:57:25.540Z,83.20
2022-07-29T05:59:55.646Z,82.71
2022-07-29T06:02:24.472Z,82.69
2022-07-29T06:04:53.532Z,81.95
2022-07-29T06:07:22.870Z,80.61
2022-07-29T06:09:51.644Z,80.99
2022-07-29T06:12:20.743Z,82.58
2022-07-29T06:14:53.923Z,79.84
2022-07-29T06:17:24.377Z,80.60
2022-07-29T06:19:53.196Z,80.41
2022-07-29T06:22:22.079Z,80.83
2022-07-29T06:24:50.791Z,81.53
2022-07-29T06:27:19.521Z,80.63
2022-07-29T06:29:48.287Z,79.62
2022-07-29T06:32:17.087Z,80.82
2022-07-29T06:34:48.956Z,80.39
2022-07-29T06:37:18.589Z,79.99
2022-07-29T06:39:48.621Z,78.09
2022-07-29T06:42:17.352Z,78.69
2022-07-29T06:44:46.083Z,80.81
2022-07-29T06:47:14.890Z,80.43
2022-07-29T06:49:43.714Z,76.96
2022-07-29T06:52:14.219Z,76.14
2022-07-29T06:54:49.023Z,75.52
2022-07-29T06:57:17.767Z,73.46
2022-07-29T06:59:46.502Z,71.20
2022-07-29T07:02:15.393Z,72.34
2022-07-29T07:04:44.243Z,69.69
2022-07-29T07:07:14.718Z,70.83
2022-07-29T07:09:43.610Z,73.17
2022-07-29T07:12:12.385Z,70.95
2022-07-29T07:14:42.658Z,70.79
2022-07-29T07:17:11.584Z,70.73
2022-07-29T07:19:40.334Z,68.68
2022-07-29T07:22:09.145Z,68.56
2022-07-29T07:24:39.368Z,69.91
2022-07-29T07:27:08.278Z,68.77
2022-07-29T07:29:37.652Z,69.20
2022-07-29T07:32:07.159Z,68.75
2022-07-29T07:34:36.161Z,67.69
2022-07-29T07:37:04.996Z,68.57
2022-07-29T07:39:33.696Z,69.10
2022-07-29T07:42:04.422Z,66.55
2022-07-29T07:44:36.472Z,66.87
2022-07-29T07:47:17.232Z,67.02
2022-07-29T07:49:47.391Z,67.85
2022-07-29T07:52:16.296Z,65.16
2022-07-29T07:54:45.740Z,64.15
2022-07-29T07:57:16.441Z,64.70
2022-07-29T07:59:45.178Z,61.91
2022-07-29T08:02:14.097Z,61.39
2022-07-29T08:04:43.022Z,64.17
2022-07-29T08:07:12.683Z,60.44
2022-07-29T08:09:43.067Z,60.22
2022-07-29T08:12:11.845Z,61.33
2022-07-29T08:14:42.085Z,62.32
2022-07-29T08:17:10.972Z,59.50
2022-07-29T08:19:39.835Z,60.50
2022-07-29T08:22:08.636Z,59.25
2022-07-29T08:24:53.189Z,59.47
2022-07-29T08:27:42.353Z,60.93
2022-07-29T08:30:13.642Z,57.92
2022-07-29T08:32:57.935Z,59.16
2022-07-29T08:35:26.931Z,57.37
2022-07-29T08:37:55.907Z,56.13
2022-07-29T08:40:31.861Z,56.18
2022-07-29T08:43:06.421Z,54.72
2022-07-29T08:45:47.465Z,55.79
2022-07-29T08:48:21.161Z,56.29
2022-07-29T08:50:56.753Z,55.72
2022-07-29T08:53:27.408Z,54.80
2022-07-29T08:55:57.091Z,52.97
2022-07-29T08:58:26.063Z,53.72
2022-07-29T09:00:58.335Z,52.49
2022-07-29T09:03:32.283Z,50.07
2022-07-29T09:06:01.291Z,51.13
2022-07-29T09:08:30.634Z,53.65
2022-07-29T09:11:01.009Z,51.44
2022-07-29T09:13:33.103Z,51.10
2022-07-29T09:16:08.558Z,52.95
2022-07-29T09:18:40.200Z,49.85
2022-07-29T09:21:36.183Z,50.32
2022-07-29T09:24:07.846Z,52.43
2022-07-29T09:26:38.389Z,50.19
2022-07-29T09:29:12.082Z,48.28
2022-07-29T09:31:44.101Z,49.71
2022-07-29T09:34:13.864Z,50.01
2022-07-29T09:36:43.149Z,46.91
2022-07-29T09:39:12.149Z,48.79
2022-07-29T09:41:48.435Z,46.66
2022-07-29T09:44:18.353Z,47.00
2022-07-29T09:46:59.959Z,46.43
2022-07-29T09:49:29.033Z,47.19
2022-07-29T09:52:08.010Z,46.14
2022-07-29T09:54:38.742Z,48.73
2022-07-29T09:57:13.302Z,49.30
2022-07-29T09:59:58.284Z,47.71
2022-07-29T10:02:33.394Z,46.86
2022-07-29T10:05:03.150Z,49.22
2022-07-29T10:07:49.391Z,48.96
2022-07-29T10:10:25.264Z,48.34
2022-07-29T10:12:56.445Z,48.04
2022-07-29T10:15:27.351Z,48.31
2022-07-29T10:17:59.004Z,47.92
2022-07-29T10:20:29.539Z,47.00
2022-07-29T10:22:59.329Z,45.64
2022-07-29T10:25:39.127Z,45.00
2022-07-29T10:28:16.251Z,42.96
2022-07-29T10:30:46.742Z,42.36
2022-07-29T10:33:33.458Z,42.49
2022-07-29T10:36:10.812Z,43.57
2022-07-29T10:38:47.181Z,44.31
2022-07-29T10:41:43.964Z,47.18
2022-07-29T10:44:19.328Z,44.46
2022-07-29T10:46:53.033Z,45.33
2022-07-29T10:49:25.900Z,45.22
2022-07-29T10:52:06.001Z,45.41
2022-07-29T10:55:01.337Z,46.32
2022-07-29T10:57:54.527Z,45.91
2022-07-29T11:00:36.404Z,47.79
2022-07-29T11:05:59.826Z,48.87
2022-07-29T11:08:29.112Z,47.75
2022-07-29T11:11:43.824Z,48.12
2022-07-29T11:14:16.590Z,48.13
2022-07-29T11:17:06.209Z,49.52
2022-07-29T11:19:40.076Z,47.73
2022-07-29T11:22:12.434Z,49.09
2022-07-29T11:24:50.231Z,50.94
2022-07-29T11:27:21.197Z,49.32
2022-07-29T11:29:53.489Z,58.13
2022-07-29T11:32:24.251Z,63.02
2022-07-29T11:35:17.331Z,64.36
2022-07-29T11:37:52.156Z,67.16
2022-07-29T11:40:24.303Z,73.13
2022-07-29T11:42:53.886Z,72.42
2022-07-29T11:45:43.739Z,75.43
2022-07-29T11:48:28.774Z,74.14
2022-07-29T11:51:01.587Z,77.12
2022-07-29T11:53:33.449Z,77.06
2022-07-29T11:56:03.848Z,77.83
2022-07-29T11:58:33.132Z,82.83
2022-07-29T12:01:04.704Z,80.35
2022-07-29T12:03:37.246Z,82.18
2022-07-29T12:06:14.899Z,82.41
2022-07-29T12:08:46.063Z,81.65
2022-07-29T12:11:21.695Z,86.65
2022-07-29T12:13:51.436Z,82.00
2022-07-29T12:16:29.502Z,81.92
2022-07-29T12:18:59.784Z,88.37
2022-07-29T12:21:29.404Z,83.50
2022-07-29T12:24:08.911Z,82.87
2022-07-29T12:26:40.514Z,83.20
2022-07-29T12:29:15.689Z,83.16
2022-07-29T12:31:54.989Z,87.81
2022-07-29T12:34:29.036Z,86.61
2022-07-29T12:36:58.206Z,87.60
2022-07-29T12:39:29.217Z,91.68
2022-07-29T12:42:04.371Z,89.22
2022-07-29T12:44:48.006Z,90.37
2022-07-29T12:47:17.459Z,92.62
2022-07-29T12:49:49.151Z,91.79
2022-07-29T12:52:31.581Z,90.97
2022-07-29T12:55:02.837Z,89.51
2022-07-29T12:57:32.916Z,90.55
2022-07-29T13:00:05.217Z,85.72
2022-07-29T13:02:34.529Z,90.04
2022-07-29T13:05:11.663Z,94.45
2022-07-29T13:07:55.416Z,94.24
2022-07-29T13:10:27.561Z,93.56
2022-07-29T13:13:06.888Z,91.23
2022-07-29T13:15:36.308Z,89.93
2022-07-29T13:18:06.100Z,90.46
2022-07-29T13:20:36.092Z,90.70
2022-07-29T13:23:04.835Z,90.31
2022-07-29T13:25:35.387Z,92.11
2022-07-29T13:28:04.186Z,91.35
2022-07-29T13:30:33.057Z,91.63
2022-07-29T13:33:01.882Z,90.79
2022-07-29T13:35:30.970Z,90.19
2022-07-29T13:38:00.308Z,89.87
2022-07-29T13:40:30.138Z,89.17
2022-07-29T13:43:00.253Z,91.07
2022-07-29T13:45:29.236Z,89.03
2022-07-29T13:47:58.112Z,93.00
2022-07-29T13:50:26.904Z,93.79
2022-07-29T13:52:55.778Z,92.91
2022-07-29T13:55:24.610Z,94.53
2022-07-29T13:57:53.613Z,92.05
2022-07-29T14:00:24.618Z,95.18
2022-07-29T14:02:53.398Z,94.60
2022-07-29T14:05:22.604Z,95.48
2022-07-29T14:07:51.398Z,95.67
2022-07-29T14:10:20.415Z,91.31
2022-07-29T14:12:49.335Z,91.32
2022-07-29T14:15:18.331Z,92.72
2022-07-29T14:17:48.675Z,92.91
2022-07-29T14:20:17.579Z,92.33
2022-07-29T14:22:48.478Z,91.46
2022-07-29T14:25:17.187Z,90.71
2022-07-29T14:27:45.990Z,89.58
2022-07-29T14:30:16.268Z,87.88
2022-07-29T14:32:46.076Z,88.61
2022-07-29T14:35:16.570Z,84.63
2022-07-29T14:37:45.517Z,85.39
2022-07-29T14:40:14.298Z,89.11
2022-07-29T14:42:43.113Z,91.01
2022-07-29T14:45:12.293Z,91.20
2022-07-29T14:47:41.421Z,91.34
2022-07-29T14:50:11.215Z,90.12
2022-07-29T14:52:41.542Z,86.18
2022-07-29T14:55:16.632Z,87.50
2022-07-29T14:57:50.841Z,91.07
2022-07-29T15:00:20.397Z,91.20
2022-07-29T15:03:01.880Z,89.48
2022-07-29T15:05:32.521Z,89.65
2022-07-29T15:08:03.383Z,91.50
2022-07-29T15:10:33.787Z,90.97
2022-07-29T15:13:02.605Z,87.76
2022-07-29T15:15:31.555Z,86.79
2022-07-29T15:18:00.403Z,87.45
2022-07-29T15:20:29.192Z,85.19
2022-07-29T15:22:58.227Z,86.71
2022-07-29T15:25:28.596Z,90.35
2022-07-29T15:28:01.253Z,92.29
2022-07-29T15:30:34.011Z,93.90
2022-07-29T15:33:03.977Z,95.03
2022-07-29T15:35:32.862Z,94.76
2022-07-29T15:38:02.148Z,94.79
2022-07-29T15:40:32.290Z,93.83
2022-07-29T15:43:06.528Z,94.08
2022-07-29T15:45:40.355Z,94.00
2022-07-29T15:48:14.618Z,93.00
2022-07-29T15:50:46.874Z,93.65
2022-07-29T15:53:16.320Z,93.31
2022-07-29T15:55:47.891Z,92.20
2022-07-29T15:58:22.873Z,88.09
2022-07-29T16:00:51.857Z,90.96
2022-07-29T16:03:23.189Z,92.93
2022-07-29T16:05:52.000Z,94.57
2022-07-29T16:08:21.006Z,94.30
2022-07-29T16:10:51.264Z,91.34
2022-07-29T16:13:20.867Z,87.05
2022-07-29T16:16:02.190Z,86.00
2022-07-29T16:18:32.425Z,87.94
2022-07-29T16:21:01.275Z,89.11
2022-07-29T16:23:30.130Z,91.80
2022-07-29T16:26:01.258Z,92.83
2022-07-29T16:28:30.844Z,90.84
2022-07-29T16:30:59.855Z,85.41
2022-07-29T16:33:55.101Z,88.50
2022-07-29T16:36:18.515Z,91.02
2022-07-29T16:38:47.875Z,92.19
2022-07-29T16:41:18.076Z,91.60
2022-07-29T16:43:46.873Z,88.29
2022-07-29T16:46:18.970Z,90.60
2022-07-29T16:48:48.826Z,92.01
2022-07-29T16:51:17.778Z,93.72
2022-07-29T16:53:48.969Z,93.92
2022-07-29T16:56:20.991Z,92.99
2022-07-29T16:58:50.308Z,93.17
2022-07-29T17:01:19.804Z,93.26
2022-07-29T17:04:07.199Z,92.33
2022-07-29T17:06:36.449Z,93.86
2022-07-29T17:09:08.148Z,93.66
2022-07-29T17:11:52.726Z,93.79
2022-07-29T17:14:24.818Z,93.88
2022-07-29T17:17:02.668Z,95.37
2022-07-29T17:19:33.728Z,96.02
2022-07-29T17:22:19.416Z,95.62
2022-07-29T17:24:48.660Z,96.58
2022-07-29T17:27:19.294Z,96.74
2022-07-29T17:29:48.306Z,95.49
2022-07-29T17:32:17.278Z,95.79
2022-07-29T17:34:46.138Z,96.47
2022-07-29T17:37:17.918Z,96.54
2022-07-29T17:39:47.038Z,97.71
2022-07-29T17:42:15.834Z,96.67
2022-07-29T17:44:47.162Z,97.24
2022-07-29T17:47:16.676Z,97.70
2022-07-29T17:49:45.955Z,96.79
2022-07-29T17:52:15.901Z,96.75
2022-07-29T17:54:44.750Z,95.70
2022-07-29T17:57:13.888Z,92.99
2022-07-29T17:59:42.867Z,89.68
2022-07-29T18:02:14.401Z,92.39
2022-07-29T18:04:43.302Z,94.63
2022-07-29T18:07:12.667Z,95.26
2022-07-29T18:09:41.934Z,96.29
2022-07-29T18:12:11.648Z,95.69
2022-07-29T18:14:40.521Z,95.55
2022-07-29T18:17:09.863Z,96.06
2022-07-29T18:19:40.376Z,95.35
2022-07-29T18:22:11.409Z,94.18
2022-07-29T18:24:40.206Z,93.61
2022-07-29T18:27:09.201Z,93.99
2022-07-29T18:29:38.086Z,93.82
2022-07-29T18:32:17.432Z,95.58
2022-07-29T18:34:47.867Z,95.52
2022-07-29T18:37:16.766Z,93.53
2022-07-29T18:39:45.791Z,94.25
2022-07-29T18:42:14.620Z,94.89
2022-07-29T18:44:48.895Z,96.08
2022-07-29T18:47:18.010Z,96.92
2022-07-29T18:49:48.253Z,96.47
2022-07-29T18:52:17.075Z,97.44
2022-07-29T18:54:46.205Z,98.18
2022-07-29T18:57:54.703Z,97.83
2022-07-29T19:00:06.262Z,97.90
2022-07-29T19:02:35.804Z,97.72
2022-07-29T19:05:07.311Z,98.08
2022-07-29T19:07:36.524Z,97.80
2022-07-29T19:10:06.022Z,97.21
2022-07-29T19:12:34.934Z,97.42
2022-07-29T19:15:04.153Z,97.10
2022-07-29T19:17:33.074Z,97.24
2022-07-29T19:20:02.212Z,97.72
2022-07-29T19:22:33.274Z,97.40
2022-07-29T19:25:02.069Z,97.46
2022-07-29T19:27:31.008Z,97.16
2022-07-29T19:30:00.157Z,97.14
2022-07-29T19:32:28.947Z,97.60
2022-07-29T19:35:15.380Z,98.03
2022-07-29T19:37:45.594Z,98.26
2022-07-29T19:40:16.237Z,98.76
2022-07-29T19:42:45.449Z,98.57
2022-07-29T19:45:14.404Z,98.65
2022-07-29T19:47:43.669Z,98.31
2022-07-29T19:50:12.533Z,98.49
2022-07-29T19:52:41.357Z,97.75
2022-07-29T19:55:11.887Z,96.86
2022-07-29T19:57:41.982Z,97.46
2022-07-29T20:00:12.691Z,96.35
2022-07-29T20:02:42.855Z,96.42
2022-07-29T20:05:11.802Z,95.66
2022-07-29T20:07:40.877Z,95.29
2022-07-29T20:10:11.946Z,97.56
2022-07-29T20:12:42.584Z,96.67
2022-07-29T20:15:16.429Z,95.42
2022-07-29T20:17:51.803Z,96.02
2022-07-29T20:20:23.647Z,96.53
2022-07-29T20:22:53.022Z,96.95
2022-07-29T20:25:23.212Z,97.78
2022-07-29T20:27:52.523Z,97.77
2022-07-29T20:30:21.960Z,97.82
2022-07-29T20:32:51.311Z,96.65
2022-07-29T20:35:22.303Z,98.28
2022-07-29T20:37:52.053Z,98.26
2022-07-29T20:40:26.726Z,98.04
2022-07-29T20:42:56.016Z,97.16
2022-07-29T20:45:24.984Z,97.53
2022-07-29T20:47:53.944Z,96.38
2022-07-29T20:50:24.478Z,96.38
2022-07-29T20:52:53.524Z,96.40
2022-07-29T20:55:22.627Z,97.15
2022-07-29T20:57:52.787Z,98.36
2022-07-29T21:00:21.575Z,97.75
2022-07-29T21:02:50.329Z,98.29
2022-07-29T21:05:19.129Z,98.74
2022-07-29T21:07:47.975Z,97.89
2022-07-29T21:10:18.378Z,96.83
2022-07-29T21:12:47.624Z,95.11
2022-07-29T21:15:20.636Z,94.79
2022-07-29T21:18:00.421Z,94.83
2022-07-29T21:20:30.177Z,95.18
2022-07-29T21:22:59.139Z,95.13
2022-07-29T21:25:29.367Z,94.81
2022-07-29T21:28:15.780Z,95.24
2022-07-29T21:30:45.917Z,96.55
2022-07-29T21:33:14.807Z,97.27
2022-07-29T21:36:06.375Z,97.30
2022-07-29T21:38:32.751Z,97.73
2022-07-29T21:41:03.856Z,97.86
2022-07-29T21:43:33.164Z,97.48
2022-07-29T21:46:03.333Z,95.77
2022-07-29T21:48:32.590Z,96.67
2022-07-29T21:51:01.449Z,96.48
2022-07-29T21:53:30.725Z,95.69
2022-07-29T21:55:59.627Z,94.41
2022-07-29T21:58:29.819Z,94.74
2022-07-29T22:01:00.247Z,95.20
2022-07-29T22:03:30.453Z,94.65
2022-07-29T22:05:59.265Z,95.59
2022-07-29T22:08:27.966Z,94.87
2022-07-29T22:10:56.635Z,95.33
2022-07-29T22:13:25.427Z,95.34
2022-07-29T22:15:54.112Z,94.76
2022-07-29T22:18:22.875Z,94.23
2022-07-29T22:20:53.082Z,94.76
2022-07-29T22:23:21.824Z,96.68
2022-07-29T22:25:50.954Z,95.86
2022-07-29T22:28:19.677Z,95.74
2022-07-29T22:30:48.584Z,95.78
2022-07-29T22:33:18.103Z,94.75
2022-07-29T22:35:48.467Z,94.40
2022-07-29T22:38:19.446Z,95.38
2022-07-29T22:40:50.723Z,96.65
2022-07-29T22:43:19.816Z,95.54
2022-07-29T22:45:48.795Z,95.74
2022-07-29T22:48:17.973Z,96.08
2022-07-29T22:50:46.738Z,95.40
2022-07-29T22:53:15.532Z,95.60
2022-07-29T22:55:45.686Z,96.43
2022-07-29T22:58:14.409Z,96.47
2022-07-29T23:00:43.131Z,96.03
2022-07-29T23:03:11.921Z,95.76
2022-07-29T23:05:40.877Z,95.06
2022-07-29T23:08:09.602Z,93.59
2022-07-29T23:10:38.329Z,94.05
2022-07-29T23:13:08.432Z,93.64
2022-07-29T23:15:37.203Z,95.07
2022-07-29T23:18:06.025Z,94.51
2022-07-29T23:20:34.878Z,94.26
2022-07-29T23:23:03.628Z,94.58
2022-07-29T23:25:32.522Z,95.27
2022-07-29T23:28:01.356Z,96.08
2022-07-29T23:30:31.692Z,96.28
2022-07-29T23:33:00.509Z,94.31
2022-07-29T23:35:29.335Z,94.10
2022-07-29T23:37:58.107Z,95.52
2022-07-29T23:40:27.098Z,94.36
2022-07-29T23:42:55.851Z,93.12
2022-07-29T23:45:39.928Z,95.78
2022-07-29T23:48:15.282Z,94.94
2022-07-29T23:50:44.007Z,95.16
2022-07-29T23:53:13.306Z,96.07
2022-07-29T23:55:42.064Z,94.86
2022-07-29T23:58:10.875Z,94.63
